Time;durP1;ratioP1;P1;durP2;ratioP2;P2;SDS_P1;SDS_P2;PMS_P1;PMS_P2;Temp;Humidity;BMP_temperature;BMP_pressure;BME280_temperature;BME280_humidity;BME280_pressure;Samples;Min_cycle;Max_cycle;Signal;HPM_P1;HPM_P2
2021/09/26 00:01:26;;;;;;;11.80;10.70;;;20.60;92.10;;;;;;4210721;28;20044;-58
2021/09/26 00:03:48;;;;;;;11.57;10.35;;;20.60;92.10;;;;;;4220309;27;20142;-58
2021/09/26 00:06:10;;;;;;;11.63;10.52;;;20.60;92.10;;;;;;4225814;28;20044;-58
2021/09/26 00:08:32;;;;;;;10.32;9.40;;;20.60;92.10;;;;;;4227530;27;20052;-57
2021/09/26 00:10:55;;;;;;;11.85;10.75;;;20.60;92.10;;;;;;4227288;27;20036;-57
2021/09/26 00:13:18;;;;;;;11.15;10.07;;;20.60;92.10;;;;;;4226729;27;20138;-58
2021/09/26 00:15:40;;;;;;;11.63;10.02;;;20.60;92.50;;;;;;4226023;27;20053;-58
2021/09/26 00:18:02;;;;;;;11.23;10.23;;;20.60;92.10;;;;;;4225530;27;20047;-58
2021/09/26 00:20:24;;;;;;;10.90;9.98;;;20.60;92.10;;;;;;4224975;27;20139;-58
2021/09/26 00:22:47;;;;;;;11.18;10.07;;;20.60;92.50;;;;;;4225639;27;20150;-58
2021/09/26 00:25:10;;;;;;;11.65;10.57;;;20.60;92.10;;;;;;4209305;28;20068;-58
2021/09/26 00:27:34;;;;;;;11.30;10.30;;;20.60;92.20;;;;;;4209155;28;20055;-57
2021/09/26 00:29:57;;;;;;;10.98;9.93;;;20.60;92.10;;;;;;4209508;28;20051;-58
2021/09/26 00:32:19;;;;;;;10.00;9.20;;;20.60;92.50;;;;;;4210162;28;20604;-58
2021/09/26 00:34:41;;;;;;;10.57;9.57;;;20.60;92.10;;;;;;4210217;28;20067;-57
2021/09/26 00:37:04;;;;;;;10.07;9.27;;;20.60;92.10;;;;;;4209912;28;20043;-57
2021/09/26 00:39:27;;;;;;;9.60;8.77;;;20.60;92.50;;;;;;4208674;28;20044;-55
2021/09/26 00:41:49;;;;;;;10.52;9.55;;;20.50;92.10;;;;;;4210046;28;20596;-58
2021/09/26 00:44:14;;;;;;;9.90;9.10;;;20.50;92.10;;;;;;4226741;27;20070;-58
2021/09/26 00:46:36;;;;;;;10.27;9.38;;;20.50;92.20;;;;;;4227163;27;20062;-60
2021/09/26 00:48:58;;;;;;;10.73;9.55;;;20.60;92.20;;;;;;4226829;27;20096;-58
2021/09/26 00:51:20;;;;;;;11.30;9.63;;;20.50;92.20;;;;;;4226773;27;20126;-58
2021/09/26 00:53:43;;;;;;;10.95;9.52;;;20.60;92.20;;;;;;4226807;27;20079;-57
2021/09/26 00:56:07;;;;;;;11.10;10.07;;;20.50;92.20;;;;;;4226750;27;20493;-57
2021/09/26 00:58:30;;;;;;;10.35;9.35;;;20.50;92.20;;;;;;4226139;27;20075;-59
2021/09/26 01:00:53;;;;;;;11.05;10.05;;;20.50;92.20;;;;;;4226452;28;20058;-57
2021/09/26 01:03:15;;;;;;;13.18;11.35;;;20.50;92.20;;;;;;4226247;27;20051;-56
2021/09/26 01:05:37;;;;;;;12.27;10.75;;;20.50;92.20;;;;;;4226712;27;20052;-56
2021/09/26 01:08:16;;;;;;;12.07;10.10;;;20.50;92.20;;;;;;4226453;27;20053;-58
2021/09/26 01:10:44;;;;;;;10.23;9.30;;;20.50;92.30;;;;;;4226444;27;20428;-58
2021/09/26 01:13:16;;;;;;;12.18;10.98;;;20.50;92.30;;;;;;4226566;27;20476;-58
2021/09/26 01:15:58;;;;;;;11.80;10.60;;;20.50;92.30;;;;;;4225977;27;20497;-58
2021/09/26 01:18:27;;;;;;;11.77;10.68;;;20.50;92.40;;;;;;4210388;27;20139;-58
2021/09/26 01:20:57;;;;;;;12.55;11.40;;;20.50;92.30;;;;;;4209155;28;20391;-57
2021/09/26 01:23:52;;;;;;;10.93;10.02;;;20.50;92.30;;;;;;4209495;28;20131;-56
2021/09/26 01:26:31;;;;;;;13.30;12.00;;;20.50;92.40;;;;;;4208841;28;20481;-57
2021/09/26 01:29:04;;;;;;;12.02;10.93;;;20.50;92.40;;;;;;4209109;28;20460;-57
2021/09/26 01:31:33;;;;;;;13.05;11.80;;;20.50;92.40;;;;;;4208866;28;20414;-57
2021/09/26 01:34:00;;;;;;;12.88;11.63;;;20.50;92.40;;;;;;4225624;27;20071;-56
2021/09/26 01:36:25;;;;;;;12.60;11.43;;;20.50;92.40;;;;;;4209212;28;20585;-57
2021/09/26 01:38:56;;;;;;;13.48;12.15;;;20.50;92.40;;;;;;4211062;28;20055;-59
2021/09/26 01:41:27;;;;;;;12.63;11.52;;;20.50;92.40;;;;;;4225953;27;20547;-58
2021/09/26 01:43:51;;;;;;;13.73;12.38;;;20.50;92.40;;;;;;4225563;27;20062;-57
2021/09/26 01:46:20;;;;;;;14.07;12.10;;;20.50;92.40;;;;;;4209133;28;20448;-57
2021/09/26 01:48:54;;;;;;;13.52;12.13;;;20.50;92.40;;;;;;4219870;28;20052;-59
2021/09/26 01:51:17;;;;;;;13.38;12.18;;;20.50;92.50;;;;;;4225692;27;20125;-55
2021/09/26 01:53:43;;;;;;;13.77;12.45;;;20.50;92.40;;;;;;4225911;27;20543;-57
2021/09/26 01:56:06;;;;;;;16.80;12.60;;;20.50;92.40;;;;;;4225524;27;20455;-56
2021/09/26 01:58:30;;;;;;;13.63;12.43;;;20.50;92.40;;;;;;4208602;28;20398;-57
2021/09/26 02:00:52;;;;;;;15.05;12.80;;;20.50;92.40;;;;;;4225385;28;20054;-58
2021/09/26 02:03:18;;;;;;;15.05;13.55;;;20.50;92.40;;;;;;4225686;28;20413;-55
2021/09/26 02:05:47;;;;;;;13.32;12.02;;;20.50;92.80;;;;;;4225124;28;20043;-58
2021/09/26 02:08:35;;;;;;;17.90;15.00;;;20.50;92.50;;;;;;4225146;27;20062;-54
2021/09/26 02:10:59;;;;;;;14.60;13.10;;;20.50;92.40;;;;;;4225438;27;20277;-57
2021/09/26 02:13:49;;;;;;;16.33;14.57;;;20.40;92.40;;;;;;4207421;28;20421;-58
2021/09/26 02:16:37;;;;;;;15.25;13.85;;;20.50;92.50;;;;;;4197615;28;20514;-55
2021/09/26 02:19:03;;;;;;;15.73;14.13;;;20.50;92.50;;;;;;4208113;28;20059;-57
2021/09/26 02:21:30;;;;;;;14.98;13.32;;;20.50;92.50;;;;;;4208272;28;20559;-56
2021/09/26 02:23:57;;;;;;;15.00;13.70;;;20.50;92.50;;;;;;4208153;28;20048;-57
2021/09/26 02:26:22;;;;;;;15.45;13.85;;;20.50;92.40;;;;;;4208278;28;20043;-56
2021/09/26 02:28:47;;;;;;;15.05;12.82;;;20.40;92.40;;;;;;4208153;28;20051;-57
2021/09/26 02:31:10;;;;;;;15.25;13.70;;;20.40;92.40;;;;;;4208193;28;20056;-58
2021/09/26 02:33:32;;;;;;;15.15;13.65;;;20.40;92.40;;;;;;4225021;27;20413;-57
2021/09/26 02:35:54;;;;;;;15.38;13.77;;;20.50;92.50;;;;;;4224840;27;20540;-57
2021/09/26 02:38:17;;;;;;;14.70;13.32;;;20.50;92.50;;;;;;4224891;28;20072;-58
2021/09/26 02:40:41;;;;;;;15.00;13.35;;;20.50;92.50;;;;;;4224997;28;20574;-57
2021/09/26 02:43:13;;;;;;;13.70;12.50;;;20.50;92.50;;;;;;4224908;28;20443;-58
2021/09/26 02:45:42;;;;;;;14.93;13.63;;;20.50;92.50;;;;;;4224435;28;20031;-56
2021/09/26 02:48:09;;;;;;;14.40;12.95;;;20.40;92.50;;;;;;4216515;28;20052;-57
2021/09/26 02:50:31;;;;;;;15.00;13.60;;;20.40;92.80;;;;;;4224723;28;20128;-57
2021/09/26 02:52:54;;;;;;;14.70;13.40;;;20.40;92.40;;;;;;4224619;28;20047;-57
2021/09/26 02:55:18;;;;;;;15.13;13.63;;;20.50;92.50;;;;;;4223584;28;20047;-58
2021/09/26 02:57:41;;;;;;;14.40;11.93;;;20.40;92.50;;;;;;4224598;28;20058;-57
2021/09/26 03:00:05;;;;;;;12.85;11.73;;;20.50;92.50;;;;;;4208161;28;20054;-57
2021/09/26 03:02:31;;;;;;;13.13;11.85;;;20.50;92.40;;;;;;4208179;28;20117;-58
2021/09/26 03:04:53;;;;;;;13.02;11.82;;;20.50;92.50;;;;;;4207480;28;20133;-59
2021/09/26 03:07:16;;;;;;;13.82;12.23;;;20.40;92.40;;;;;;4208123;28;20048;-57
2021/09/26 03:09:38;;;;;;;13.18;11.98;;;20.50;92.40;;;;;;4207890;28;20471;-57
2021/09/26 03:12:09;;;;;;;13.30;11.98;;;20.40;92.40;;;;;;4209607;28;20048;-56
2021/09/26 03:14:31;;;;;;;11.95;10.85;;;20.40;92.40;;;;;;4224706;28;20051;-57
2021/09/26 03:16:53;;;;;;;13.02;11.73;;;20.40;92.30;;;;;;4224826;28;20043;-57
2021/09/26 03:19:15;;;;;;;12.68;11.38;;;20.40;92.40;;;;;;4224004;27;20047;-57
2021/09/26 03:21:37;;;;;;;15.30;11.05;;;20.40;92.40;;;;;;4224348;27;20502;-57
2021/09/26 03:24:00;;;;;;;10.88;9.85;;;20.40;92.40;;;;;;4225820;27;20047;-57
2021/09/26 03:26:22;;;;;;;11.40;10.30;;;20.40;92.50;;;;;;4228182;27;20043;-57
2021/09/26 03:28:46;;;;;;;11.40;10.27;;;20.40;92.30;;;;;;4227537;27;20150;-57
2021/09/26 03:31:08;;;;;;;11.23;10.23;;;20.40;92.30;;;;;;4227939;27;20051;-57
2021/09/26 03:33:30;;;;;;;11.75;10.35;;;20.40;92.70;;;;;;4228038;27;20079;-57
2021/09/26 03:35:52;;;;;;;11.68;10.65;;;20.40;92.30;;;;;;4227590;27;20059;-57
2021/09/26 03:38:14;;;;;;;11.07;10.18;;;20.40;92.30;;;;;;4227385;27;20474;-58
2021/09/26 03:40:37;;;;;;;10.88;9.75;;;20.40;92.30;;;;;;4226372;27;20558;-57
2021/09/26 03:43:00;;;;;;;12.20;10.48;;;20.40;92.30;;;;;;4227597;27;20075;-56
2021/09/26 03:45:23;;;;;;;12.00;10.40;;;20.40;92.30;;;;;;4227954;27;20054;-57
2021/09/26 03:47:45;;;;;;;9.93;9.10;;;20.40;92.30;;;;;;4227244;27;20054;-57
2021/09/26 03:50:09;;;;;;;10.00;9.10;;;20.40;92.30;;;;;;4227604;27;20051;-58
2021/09/26 03:52:31;;;;;;;10.07;9.02;;;20.40;92.30;;;;;;4227526;27;20051;-57
2021/09/26 03:54:53;;;;;;;10.13;9.23;;;20.40;92.20;;;;;;4227811;27;20047;-57
2021/09/26 03:57:15;;;;;;;10.88;9.93;;;20.40;92.20;;;;;;4227798;27;20047;-57
2021/09/26 03:59:37;;;;;;;10.00;9.00;;;20.40;92.20;;;;;;4227287;27;20059;-57
2021/09/26 04:02:03;;;;;;;10.45;9.60;;;20.40;92.20;;;;;;4227194;27;20047;-58
2021/09/26 04:04:25;;;;;;;10.70;9.70;;;20.40;92.10;;;;;;4227399;27;20543;-57
2021/09/26 04:06:46;;;;;;;11.07;9.95;;;20.30;92.10;;;;;;4227053;27;20126;-58
2021/09/26 04:09:09;;;;;;;10.50;9.60;;;20.40;92.10;;;;;;4226899;27;20057;-58
2021/09/26 04:11:31;;;;;;;10.27;9.35;;;20.40;92.10;;;;;;4227168;27;20058;-57
2021/09/26 04:13:53;;;;;;;11.32;9.13;;;20.40;92.10;;;;;;4224226;27;20768;-57
2021/09/26 04:16:15;;;;;;;10.43;9.23;;;20.40;92.10;;;;;;4227241;27;20044;-57
2021/09/26 04:18:38;;;;;;;10.93;9.82;;;20.40;92.00;;;;;;4226991;27;20537;-56
2021/09/26 04:21:01;;;;;;;10.63;9.50;;;20.40;92.00;;;;;;4227362;28;20057;-57
2021/09/26 04:23:23;;;;;;;9.25;8.45;;;20.40;92.00;;;;;;4226806;27;20048;-54
2021/09/26 04:25:45;;;;;;;10.80;9.80;;;20.40;92.00;;;;;;4227024;27;20043;-57
2021/09/26 04:28:07;;;;;;;13.13;10.30;;;20.40;92.00;;;;;;4227167;27;20089;-56
2021/09/26 04:30:29;;;;;;;10.93;9.88;;;20.40;91.90;;;;;;4227104;27;20051;-57
2021/09/26 04:32:51;;;;;;;11.95;9.80;;;20.40;91.90;;;;;;4227119;27;20066;-58
2021/09/26 04:35:14;;;;;;;9.70;8.90;;;20.40;91.90;;;;;;4226374;27;20047;-57
2021/09/26 04:37:36;;;;;;;9.88;8.90;;;20.30;91.90;;;;;;4210040;28;20568;-57
2021/09/26 04:39:59;;;;;;;10.73;9.43;;;20.40;91.90;;;;;;4210055;28;20083;-58
2021/09/26 04:42:21;;;;;;;10.55;9.63;;;20.40;91.80;;;;;;4210103;28;20040;-58
2021/09/26 04:44:43;;;;;;;10.30;9.40;;;20.40;91.80;;;;;;4210127;28;20418;-58
2021/09/26 04:47:05;;;;;;;9.98;9.07;;;20.30;91.80;;;;;;4218196;27;20476;-57
2021/09/26 04:49:29;;;;;;;10.60;9.45;;;20.40;91.80;;;;;;4215287;27;20130;-57
2021/09/26 04:51:52;;;;;;;9.68;8.88;;;20.30;91.70;;;;;;4226152;27;20059;-57
2021/09/26 04:54:14;;;;;;;10.35;9.23;;;20.30;91.70;;;;;;4226556;27;20051;-58
2021/09/26 04:56:36;;;;;;;10.90;9.82;;;20.30;91.70;;;;;;4226303;27;20048;-56
2021/09/26 04:58:58;;;;;;;10.93;9.82;;;20.30;91.70;;;;;;4226658;27;20043;-56
2021/09/26 05:01:20;;;;;;;11.02;9.60;;;20.30;91.70;;;;;;4226913;27;20465;-58
2021/09/26 05:03:42;;;;;;;10.63;9.50;;;20.30;91.60;;;;;;4226538;27;20096;-56
2021/09/26 05:06:04;;;;;;;10.85;9.85;;;20.30;91.60;;;;;;4226651;27;20050;-59
2021/09/26 05:08:28;;;;;;;10.40;9.50;;;20.30;91.50;;;;;;4226099;27;20116;-59
2021/09/26 05:10:50;;;;;;;10.02;9.13;;;20.30;91.50;;;;;;4226383;27;20051;-59
2021/09/26 05:13:12;;;;;;;10.18;9.30;;;20.30;91.90;;;;;;4226367;27;20042;-58
2021/09/26 05:15:34;;;;;;;9.90;9.05;;;20.30;91.50;;;;;;4226140;27;20048;-57
2021/09/26 05:17:56;;;;;;;9.38;8.57;;;20.30;91.50;;;;;;4225866;27;20453;-57
2021/09/26 05:20:18;;;;;;;9.40;8.50;;;20.30;91.40;;;;;;4225807;27;20497;-57
2021/09/26 05:22:40;;;;;;;9.57;8.52;;;20.30;91.30;;;;;;4226402;27;20059;-59
2021/09/26 05:25:04;;;;;;;9.75;8.85;;;20.30;91.30;;;;;;4226432;28;20131;-58
2021/09/26 05:27:27;;;;;;;9.27;8.38;;;20.30;91.20;;;;;;4225891;27;20048;-56
2021/09/26 05:29:49;;;;;;;8.70;7.90;;;20.30;91.00;;;;;;4226183;27;20497;-58
2021/09/26 05:32:12;;;;;;;9.48;8.60;;;20.30;90.90;;;;;;4226020;27;20067;-58
2021/09/26 05:34:34;;;;;;;9.60;8.73;;;20.20;91.00;;;;;;4225858;27;20047;-56
2021/09/26 05:36:56;;;;;;;9.35;8.45;;;20.20;91.00;;;;;;4225857;27;20051;-58
2021/09/26 05:39:18;;;;;;;10.57;9.35;;;20.20;91.10;;;;;;4225892;27;20134;-58
2021/09/26 05:41:42;;;;;;;9.35;8.65;;;20.20;91.10;;;;;;4226238;27;20055;-57
2021/09/26 05:44:04;;;;;;;10.32;9.43;;;20.20;91.00;;;;;;4225569;27;20104;-56
2021/09/26 05:46:26;;;;;;;9.60;8.70;;;20.20;91.10;;;;;;4225957;27;20043;-57
2021/09/26 05:48:49;;;;;;;9.32;8.52;;;20.20;91.00;;;;;;4208811;28;20500;-56
2021/09/26 05:51:11;;;;;;;9.05;8.32;;;20.20;91.10;;;;;;4211016;28;20043;-56
2021/09/26 05:53:33;;;;;;;10.05;9.05;;;20.20;91.00;;;;;;4225713;28;20152;-58
2021/09/26 05:55:55;;;;;;;11.00;8.82;;;20.20;90.90;;;;;;4225618;28;20409;-56
2021/09/26 05:58:18;;;;;;;9.65;8.75;;;20.20;91.10;;;;;;4225545;27;20043;-56
2021/09/26 06:00:41;;;;;;;9.82;9.02;;;20.20;91.40;;;;;;4225839;27;20526;-57
2021/09/26 06:03:03;;;;;;;10.10;9.20;;;20.20;91.00;;;;;;4224789;27;20405;-57
2021/09/26 06:05:26;;;;;;;10.43;9.35;;;20.20;90.90;;;;;;4225465;27;20075;-57
2021/09/26 06:07:48;;;;;;;9.45;8.63;;;20.20;90.80;;;;;;4225032;27;20504;-55
2021/09/26 06:10:11;;;;;;;9.57;8.68;;;20.20;90.90;;;;;;4225338;28;20043;-57
2021/09/26 06:12:33;;;;;;;10.10;9.10;;;20.20;90.90;;;;;;4224482;27;20130;-56
2021/09/26 06:14:57;;;;;;;9.88;9.07;;;20.20;90.70;;;;;;4225183;27;20498;-56
2021/09/26 06:17:19;;;;;;;9.98;9.05;;;20.20;90.70;;;;;;4224444;27;20048;-58
2021/09/26 06:19:42;;;;;;;10.00;9.20;;;20.20;90.80;;;;;;4225159;27;20054;-58
2021/09/26 06:22:04;;;;;;;11.25;10.02;;;20.20;90.90;;;;;;4225073;27;20077;-58
2021/09/26 06:24:27;;;;;;;10.48;9.57;;;20.10;90.90;;;;;;4224769;27;20035;-56
2021/09/26 06:26:49;;;;;;;11.30;10.38;;;20.10;90.90;;;;;;4225396;27;20128;-56
2021/09/26 06:29:11;;;;;;;10.65;9.68;;;20.20;91.00;;;;;;4224994;27;20432;-56
2021/09/26 06:31:34;;;;;;;10.27;9.30;;;20.20;91.00;;;;;;4224694;27;20067;-56
2021/09/26 06:33:56;;;;;;;11.02;10.07;;;20.10;91.00;;;;;;4224488;27;20075;-58
2021/09/26 06:36:18;;;;;;;10.68;9.85;;;20.10;91.10;;;;;;4223009;27;20485;-56
2021/09/26 06:38:41;;;;;;;11.18;10.00;;;20.20;91.30;;;;;;4224583;27;20083;-57
2021/09/26 06:41:03;;;;;;;10.88;9.93;;;20.10;91.20;;;;;;4224969;27;20054;-55
2021/09/26 06:43:26;;;;;;;11.88;10.88;;;20.10;91.20;;;;;;4225060;27;20482;-56
2021/09/26 06:45:48;;;;;;;11.05;10.15;;;20.10;91.30;;;;;;4224472;27;20040;-57
2021/09/26 06:48:12;;;;;;;11.75;10.65;;;20.10;91.20;;;;;;4224750;27;20130;-56
2021/09/26 06:50:34;;;;;;;11.90;10.82;;;20.10;91.10;;;;;;4224897;27;20048;-57
2021/09/26 06:52:56;;;;;;;10.93;9.93;;;20.10;91.10;;;;;;4224737;27;20131;-57
2021/09/26 06:55:18;;;;;;;10.00;9.20;;;20.10;91.10;;;;;;4224747;27;20055;-56
2021/09/26 06:57:41;;;;;;;12.00;10.90;;;20.10;91.20;;;;;;4224665;27;20051;-57
2021/09/26 07:00:05;;;;;;;11.52;10.48;;;20.10;91.20;;;;;;4224864;27;20126;-55
2021/09/26 07:02:27;;;;;;;10.50;9.55;;;20.10;91.30;;;;;;4223326;27;20050;-57
2021/09/26 07:04:51;;;;;;;12.20;10.93;;;20.10;91.60;;;;;;4224938;27;20040;-57
2021/09/26 07:07:13;;;;;;;11.80;10.70;;;20.20;91.20;;;;;;4224659;27;20043;-58
2021/09/26 07:09:35;;;;;;;11.40;10.35;;;20.20;91.10;;;;;;4224190;27;20545;-56
2021/09/26 07:11:57;;;;;;;11.63;10.50;;;20.30;91.10;;;;;;4224642;27;20047;-56
2021/09/26 07:14:19;;;;;;;11.50;10.50;;;20.30;91.00;;;;;;4224703;27;20498;-57
2021/09/26 07:16:41;;;;;;;12.25;10.98;;;20.30;90.80;;;;;;4225278;27;20138;-57
2021/09/26 07:19:03;;;;;;;11.13;10.10;;;20.30;91.00;;;;;;4224859;27;20040;-57
2021/09/26 07:21:27;;;;;;;11.35;10.30;;;20.30;90.90;;;;;;4224890;27;20054;-57
2021/09/26 07:23:49;;;;;;;10.55;9.68;;;20.30;90.90;;;;;;4224374;27;20074;-58
2021/09/26 07:26:12;;;;;;;10.57;9.77;;;20.40;91.00;;;;;;4224607;27;20058;-58
2021/09/26 07:28:34;;;;;;;10.70;9.60;;;20.40;91.00;;;;;;4224200;27;20156;-58
2021/09/26 07:30:57;;;;;;;10.75;9.73;;;20.50;91.10;;;;;;4224134;27;20417;-59
2021/09/26 07:33:19;;;;;;;11.07;10.18;;;20.50;91.10;;;;;;4223940;27;20048;-59
2021/09/26 07:35:41;;;;;;;11.20;10.10;;;20.50;91.00;;;;;;4223178;27;20083;-57
2021/09/26 07:38:05;;;;;;;10.88;9.90;;;20.60;90.90;;;;;;4223189;27;20069;-58
2021/09/26 07:40:27;;;;;;;10.80;9.90;;;20.60;90.90;;;;;;4223455;27;20047;-57
2021/09/26 07:42:49;;;;;;;11.07;10.05;;;20.60;90.80;;;;;;4224180;27;20118;-58
2021/09/26 07:45:13;;;;;;;12.18;11.13;;;20.70;90.90;;;;;;4224237;28;20784;-56
2021/09/26 07:47:35;;;;;;;11.63;10.57;;;20.70;90.80;;;;;;4222087;28;20750;-58
2021/09/26 07:49:57;;;;;;;11.57;10.48;;;20.70;90.80;;;;;;4223750;28;20043;-55
2021/09/26 07:52:20;;;;;;;11.57;10.45;;;20.70;90.70;;;;;;4221069;28;20044;-55
2021/09/26 07:54:43;;;;;;;11.75;10.68;;;20.80;90.70;;;;;;4224122;28;20055;-59
2021/09/26 07:57:06;;;;;;;12.10;11.05;;;20.80;90.60;;;;;;4223581;28;20055;-58
2021/09/26 07:59:28;;;;;;;12.23;11.00;;;20.80;90.50;;;;;;4224215;28;20656;-58
2021/09/26 08:01:50;;;;;;;12.13;11.00;;;20.80;90.40;;;;;;4224021;27;20127;-58
2021/09/26 08:04:13;;;;;;;12.80;11.57;;;20.90;90.40;;;;;;4224073;28;20047;-58
2021/09/26 08:06:35;;;;;;;12.05;10.93;;;20.90;90.40;;;;;;4224146;28;20044;-59
2021/09/26 08:08:57;;;;;;;10.98;9.98;;;20.90;90.40;;;;;;4224253;28;20044;-59
2021/09/26 08:11:21;;;;;;;13.50;12.18;;;21.00;90.40;;;;;;4225337;27;20043;-57
2021/09/26 08:13:43;;;;;;;12.00;10.90;;;20.90;90.30;;;;;;4226997;27;20043;-57
2021/09/26 08:16:05;;;;;;;12.23;11.00;;;21.00;90.30;;;;;;4227245;27;20067;-57
2021/09/26 08:18:28;;;;;;;12.77;11.48;;;21.00;90.20;;;;;;4227053;27;20066;-57
2021/09/26 08:20:50;;;;;;;12.02;10.75;;;21.00;90.20;;;;;;4225027;27;20063;-59
2021/09/26 08:23:13;;;;;;;11.93;10.82;;;21.10;90.20;;;;;;4227242;27;20100;-58
2021/09/26 08:25:35;;;;;;;11.38;10.40;;;21.10;90.10;;;;;;4227084;27;20055;-58
2021/09/26 08:27:59;;;;;;;11.23;10.23;;;21.10;90.10;;;;;;4227217;27;20078;-57
2021/09/26 08:30:21;;;;;;;11.35;10.18;;;21.10;90.00;;;;;;4227024;27;20057;-59
2021/09/26 08:32:43;;;;;;;11.65;10.75;;;21.10;89.60;;;;;;4226855;27;20050;-58
2021/09/26 08:35:07;;;;;;;11.93;10.82;;;21.10;89.00;;;;;;4226166;27;20098;-58
2021/09/26 08:37:30;;;;;;;11.95;10.65;;;21.10;88.90;;;;;;4225632;27;20497;-58
2021/09/26 08:39:52;;;;;;;10.45;9.45;;;21.20;88.90;;;;;;4222394;27;20122;-58
2021/09/26 08:42:16;;;;;;;11.55;10.45;;;21.20;89.30;;;;;;4226570;27;20043;-58
2021/09/26 08:44:41;;;;;;;11.70;10.55;;;21.20;89.40;;;;;;4226684;27;20059;-58
2021/09/26 08:47:03;;;;;;;11.02;10.00;;;21.10;89.40;;;;;;4226606;27;20055;-59
2021/09/26 08:49:26;;;;;;;9.75;8.95;;;21.20;89.60;;;;;;4225456;28;20535;-58
2021/09/26 08:51:50;;;;;;;9.93;9.00;;;21.20;89.70;;;;;;4226543;27;20044;-58
2021/09/26 08:54:12;;;;;;;11.25;10.18;;;21.10;89.60;;;;;;4226449;27;20048;-58
2021/09/26 08:56:34;;;;;;;10.48;9.50;;;21.10;89.50;;;;;;4225456;27;20726;-59
2021/09/26 08:58:56;;;;;;;8.90;8.00;;;21.20;90.00;;;;;;4225417;27;20131;-59
2021/09/26 09:01:20;;;;;;;9.93;8.70;;;21.20;89.10;;;;;;4226431;27;20093;-59
2021/09/26 09:03:46;;;;;;;9.38;8.57;;;21.20;89.00;;;;;;4226615;27;20066;-59
2021/09/26 09:06:08;;;;;;;9.73;8.93;;;21.20;89.00;;;;;;4225489;27;20048;-59
2021/09/26 09:08:31;;;;;;;9.75;8.82;;;21.30;89.10;;;;;;4226349;27;20056;-59
2021/09/26 09:10:55;;;;;;;9.57;8.68;;;21.30;89.10;;;;;;4226460;28;20051;-58
2021/09/26 09:13:20;;;;;;;9.75;8.95;;;21.30;88.60;;;;;;4226139;27;20539;-59
2021/09/26 09:15:50;;;;;;;10.23;9.23;;;21.40;88.60;;;;;;4226268;27;20082;-59
2021/09/26 09:18:14;;;;;;;9.02;8.32;;;21.40;88.40;;;;;;4226130;27;20047;-59
2021/09/26 09:20:35;;;;;;;9.48;8.68;;;21.40;88.40;;;;;;4225992;27;20054;-58
2021/09/26 09:22:59;;;;;;;9.38;8.48;;;21.40;88.40;;;;;;4226063;27;20499;-59
2021/09/26 09:25:39;;;;;;;9.18;8.27;;;21.50;88.40;;;;;;4225861;27;20067;-59
2021/09/26 09:28:04;;;;;;;9.68;8.90;;;21.50;88.00;;;;;;4226047;27;20039;-59
2021/09/26 09:30:32;;;;;;;9.77;8.77;;;21.50;88.20;;;;;;4226115;27;20044;-58
2021/09/26 09:32:55;;;;;;;10.82;8.70;;;21.50;87.90;;;;;;4225433;27;20051;-59
2021/09/26 09:35:22;;;;;;;9.02;8.32;;;21.60;87.80;;;;;;4226012;27;20051;-59
2021/09/26 09:37:44;;;;;;;8.73;8.02;;;21.60;87.50;;;;;;4225509;27;20502;-59
2021/09/26 09:40:09;;;;;;;8.82;8.00;;;21.50;86.90;;;;;;4225707;27;20101;-59
2021/09/26 09:42:38;;;;;;;8.68;7.90;;;21.50;86.90;;;;;;4226002;27;20572;-58
2021/09/26 09:45:14;;;;;;;9.27;8.48;;;21.50;86.60;;;;;;4224734;27;20121;-59
2021/09/26 09:47:56;;;;;;;8.80;7.95;;;21.50;86.50;;;;;;4224913;28;20503;-58
2021/09/26 09:50:18;;;;;;;10.30;9.25;;;21.50;86.60;;;;;;4225541;27;20070;-59
2021/09/26 09:52:43;;;;;;;8.90;8.07;;;21.50;86.90;;;;;;4225238;27;20047;-59
2021/09/26 09:55:06;;;;;;;9.85;8.80;;;21.40;86.90;;;;;;4225284;27;20078;-59
2021/09/26 09:57:32;;;;;;;9.30;8.02;;;21.50;86.80;;;;;;4225209;27;20055;-58
2021/09/26 09:59:54;;;;;;;8.70;7.95;;;21.40;86.90;;;;;;4225061;27;20715;-59
2021/09/26 10:02:16;;;;;;;8.88;8.07;;;21.40;87.20;;;;;;4225347;27;20410;-59
2021/09/26 10:04:40;;;;;;;9.10;8.20;;;21.40;87.30;;;;;;4224534;27;20063;-60
2021/09/26 10:07:18;;;;;;;8.75;8.02;;;21.40;87.30;;;;;;4224775;27;20523;-59
2021/09/26 10:09:41;;;;;;;9.43;8.63;;;21.30;87.30;;;;;;4225686;27;20136;-59
2021/09/26 10:12:07;;;;;;;10.45;8.45;;;21.40;87.40;;;;;;4224749;27;20599;-58
2021/09/26 10:14:32;;;;;;;9.45;8.32;;;21.40;88.20;;;;;;4224541;27;20123;-58
2021/09/26 10:16:56;;;;;;;9.38;8.55;;;21.40;87.10;;;;;;4224747;27;20481;-59
2021/09/26 10:19:22;;;;;;;8.43;7.63;;;21.30;87.80;;;;;;4225380;27;20784;-59
2021/09/26 10:21:43;;;;;;;8.90;8.05;;;21.30;87.10;;;;;;4225492;27;20127;-59
2021/09/26 10:24:06;;;;;;;8.95;8.15;;;21.30;87.00;;;;;;4224945;27;20805;-59
2021/09/26 10:26:31;;;;;;;9.13;8.25;;;21.30;87.30;;;;;;4225383;27;20126;-59
2021/09/26 10:28:55;;;;;;;8.75;7.85;;;21.30;86.90;;;;;;4225416;27;20055;-59
2021/09/26 10:31:20;;;;;;;8.45;7.55;;;21.30;86.90;;;;;;4225241;27;20063;-58
2021/09/26 10:33:45;;;;;;;9.57;8.30;;;21.30;86.90;;;;;;4224188;27;20062;-59
2021/09/26 10:36:09;;;;;;;9.82;7.88;;;21.30;86.90;;;;;;4225077;27;20521;-59
2021/09/26 10:38:32;;;;;;;8.15;7.28;;;21.30;86.90;;;;;;4224993;27;20459;-59
2021/09/26 10:40:55;;;;;;;9.27;8.13;;;21.30;86.90;;;;;;4224985;27;20040;-58
2021/09/26 10:43:20;;;;;;;9.35;8.45;;;21.30;86.60;;;;;;4225159;27;20047;-58
2021/09/26 10:45:42;;;;;;;9.43;8.32;;;21.30;87.00;;;;;;4207823;28;20044;-59
2021/09/26 10:48:05;;;;;;;8.32;7.63;;;21.30;87.20;;;;;;4207997;28;20040;-57
2021/09/26 10:50:35;;;;;;;9.25;8.45;;;21.30;87.40;;;;;;4207821;28;20521;-59
2021/09/26 10:53:08;;;;;;;11.30;8.02;;;21.30;87.60;;;;;;4208174;28;20044;-58
2021/09/26 10:55:32;;;;;;;9.52;8.45;;;21.40;87.80;;;;;;4192165;27;20076;-59
2021/09/26 10:58:16;;;;;;;9.30;8.50;;;21.40;87.70;;;;;;4191269;28;20052;-58
2021/09/26 11:00:42;;;;;;;9.05;8.27;;;21.40;87.30;;;;;;4205044;28;20044;-59
2021/09/26 11:03:07;;;;;;;9.30;8.50;;;21.40;87.50;;;;;;4207921;28;20044;-59
2021/09/26 11:05:40;;;;;;;8.55;7.75;;;21.40;87.20;;;;;;4206808;28;20040;-58
2021/09/26 11:08:05;;;;;;;8.77;7.95;;;21.50;87.20;;;;;;4206515;28;20052;-58
2021/09/26 11:10:42;;;;;;;8.63;7.93;;;21.60;88.20;;;;;;4207734;28;20127;-58
2021/09/26 11:13:14;;;;;;;8.85;7.20;;;21.60;87.00;;;;;;4207916;28;20098;-58
2021/09/26 11:16:03;;;;;;;7.75;7.05;;;21.60;86.90;;;;;;4206609;28;20048;-60
2021/09/26 11:19:02;;;;;;;8.20;7.45;;;21.70;86.90;;;;;;4223088;28;20051;-57
2021/09/26 11:21:56;;;;;;;7.65;7.05;;;21.70;86.60;;;;;;4224280;28;20101;-59
2021/09/26 11:24:43;;;;;;;7.22;6.60;;;21.70;86.00;;;;;;4224373;28;20511;-58
2021/09/26 11:27:17;;;;;;;7.95;7.25;;;21.80;86.00;;;;;;4223701;27;20082;-59
2021/09/26 11:30:12;;;;;;;7.07;6.40;;;21.70;85.80;;;;;;4224202;28;20055;-57
2021/09/26 11:32:36;;;;;;;8.00;7.30;;;21.80;86.10;;;;;;4224005;28;20493;-57
2021/09/26 11:34:59;;;;;;;8.13;7.43;;;21.80;85.80;;;;;;4224948;27;20047;-58
2021/09/26 11:37:49;;;;;;;9.38;8.20;;;21.80;85.50;;;;;;4203012;28;20452;-56
2021/09/26 11:40:14;;;;;;;8.43;7.72;;;21.80;85.60;;;;;;4207410;28;20044;-57
2021/09/26 11:42:39;;;;;;;7.57;6.90;;;21.90;85.80;;;;;;4207761;28;20044;-57
2021/09/26 11:45:05;;;;;;;7.90;7.15;;;21.90;85.90;;;;;;4208969;28;20044;-57
2021/09/26 11:47:28;;;;;;;8.77;7.88;;;21.90;85.90;;;;;;4192917;28;20049;-58
2021/09/26 11:49:52;;;;;;;8.10;7.47;;;21.90;86.00;;;;;;4194194;28;20418;-58
2021/09/26 11:52:15;;;;;;;8.32;7.57;;;21.90;85.90;;;;;;4193818;28;20128;-58
2021/09/26 11:54:37;;;;;;;8.85;8.05;;;21.90;86.00;;;;;;4194221;28;20422;-55
2021/09/26 11:56:59;;;;;;;8.68;7.90;;;21.90;86.10;;;;;;4207694;28;20048;-57
2021/09/26 11:59:21;;;;;;;8.52;7.72;;;21.90;86.20;;;;;;4210752;28;20519;-58
2021/09/26 12:01:45;;;;;;;8.65;7.80;;;21.90;86.40;;;;;;4210459;28;20056;-56
2021/09/26 12:04:14;;;;;;;8.75;7.97;;;21.90;86.60;;;;;;4210472;28;20052;-58
2021/09/26 12:06:39;;;;;;;8.68;7.78;;;21.90;86.90;;;;;;4210290;28;20052;-58
2021/09/26 12:09:01;;;;;;;7.85;7.15;;;21.90;87.00;;;;;;4210143;28;20044;-58
2021/09/26 12:11:23;;;;;;;10.00;7.53;;;21.90;87.00;;;;;;4210339;28;20044;-59
2021/09/26 12:13:48;;;;;;;8.27;7.53;;;21.90;87.10;;;;;;4210394;28;20133;-58
2021/09/26 12:16:10;;;;;;;8.00;7.22;;;21.90;87.00;;;;;;4210571;28;20105;-58
2021/09/26 12:18:33;;;;;;;11.82;7.53;;;21.90;86.90;;;;;;4210256;28;20040;-58
2021/09/26 12:21:05;;;;;;;8.13;7.35;;;21.90;86.90;;;;;;4210557;28;20109;-57
2021/09/26 12:23:42;;;;;;;;;;;21.90;87.00;;;;;;4210586;28;20048;-61